Time,TemperatureF,DewpointF,PressureIn,WindDirection,WindDirectionDegrees,WindSpeedMPH,WindSpeedGustMPH,Humidity,HourlyPrecipIn,Conditions,Clouds,dailyrainin,SoftwareType,DateUTC
2013-04-19 00:00:00,31.9,27.6,29.90,WNW,287,14.0,14.0,84,0.00,,,0.51,Wunderground v.1.15,2013-04-19 05:00:00,
2013-04-19 00:05:00,31.9,27.6,29.90,NW,323,14.0,14.0,84,0.00,,,0.51,Wunderground v.1.15,2013-04-19 05:05:00,
2013-04-19 00:15:00,31.9,27.3,29.90,WNW,285,12.0,12.0,83,0.00,,,0.00,Wunderground v.1.15,2013-04-19 05:15:00,
2013-04-19 00:20:00,32.0,27.4,29.90,NW,304,11.0,11.0,83,0.00,,,0.00,Wunderground v.1.15,2013-04-19 05:20:00,
2013-04-19 00:30:00,32.0,27.4,29.90,West,274,12.0,12.0,83,0.00,,,0.00,Wunderground v.1.15,2013-04-19 05:30:00,
2013-04-19 00:35:00,32.0,27.4,29.90,WNW,290,12.0,20.0,83,0.00,,,0.00,Wunderground v.1.15,2013-04-19 05:35:00,
2013-04-19 00:45:00,32.0,27.4,29.90,West,280,12.0,20.0,83,0.00,,,0.00,Wunderground v.1.15,2013-04-19 05:45:00,
2013-04-19 00:55:00,31.9,27.3,29.90,WNW,296,14.0,14.0,83,0.00,,,0.00,Wunderground v.1.15,2013-04-19 05:55:00,
2013-04-19 01:05:00,31.9,27.3,29.90,NW,308,12.0,19.0,83,0.00,,,0.00,Wunderground v.1.15,2013-04-19 06:05:00,
2013-04-19 01:15:00,31.9,27.3,29.90,NW,316,14.0,17.0,83,0.00,,,0.00,Wunderground v.1.15,2013-04-19 06:15:00,
2013-04-19 01:20:00,31.8,26.9,29.90,WNW,302,14.0,14.0,82,0.00,,,0.00,Wunderground v.1.15,2013-04-19 06:20:00,
2013-04-19 01:30:00,31.7,26.8,29.89,West,280,11.0,14.0,82,0.00,,,0.00,Wunderground v.1.15,2013-04-19 06:30:00,
2013-04-19 01:40:00,31.4,26.5,29.90,WNW,298,12.0,16.0,82,0.00,,,0.00,Wunderground v.1.15,2013-04-19 06:40:00,
2013-04-19 01:50:00,31.2,26.3,29.90,West,279,12.0,14.0,82,0.00,,,0.00,Wunderground v.1.15,2013-04-19 06:50:00,
2013-04-19 01:55:00,31.1,26.0,29.89,WNW,290,12.0,14.0,81,0.00,,,0.00,Wunderground v.1.15,2013-04-19 06:55:00,
2013-04-19 02:00:00,31.0,25.9,29.89,WNW,301,11.0,11.0,81,0.00,,,0.00,Wunderground v.1.15,2013-04-19 07:00:00,
2013-04-19 02:05:00,30.8,25.7,29.89,WNW,288,11.0,11.0,81,0.00,,,0.00,Wunderground v.1.15,2013-04-19 07:05:00,
2013-04-19 02:15:00,30.5,25.1,29.89,West,281,10.0,18.0,80,0.00,,,0.00,Wunderground v.1.15,2013-04-19 07:15:00,
2013-04-19 02:20:00,30.4,25.0,29.89,NW,311,11.0,11.0,80,0.00,,,0.00,Wunderground v.1.15,2013-04-19 07:20:00,
2013-04-19 02:25:00,30.3,24.9,29.89,WNW,296,11.0,11.0,80,0.00,,,0.00,Wunderground v.1.15,2013-04-19 07:25:00,
2013-04-19 02:35:00,30.1,24.4,29.89,WNW,286,8.0,9.0,79,0.00,,,0.00,Wunderground v.1.15,2013-04-19 07:35:00,
2013-04-19 02:40:00,30.0,24.6,29.89,NW,312,7.0,7.0,80,0.00,,,0.00,Wunderground v.1.15,2013-04-19 07:40:00,
2013-04-19 02:50:00,29.7,24.3,29.89,West,277,8.0,17.0,80,0.00,,,0.00,Wunderground v.1.15,2013-04-19 07:50:00,
2013-04-19 03:00:00,29.6,23.9,29.89,WNW,298,9.0,9.0,79,0.00,,,0.00,Wunderground v.1.15,2013-04-19 08:00:00,
2013-04-19 03:05:00,29.5,23.8,29.89,WNW,286,8.0,9.0,79,0.00,,,0.00,Wunderground v.1.15,2013-04-19 08:05:00,
2013-04-19 03:15:00,29.4,23.7,29.89,WNW,290,10.0,10.0,79,0.00,,,0.00,Wunderground v.1.15,2013-04-19 08:15:00,
2013-04-19 03:20:00,29.4,23.7,29.89,WNW,292,9.0,9.0,79,0.00,,,0.00,Wunderground v.1.15,2013-04-19 08:20:00,
2013-04-19 03:30:00,29.3,23.6,29.89,West,275,10.0,10.0,79,0.00,,,0.00,Wunderground v.1.15,2013-04-19 08:30:00,
2013-04-19 03:40:00,29.2,23.5,29.89,WNW,287,10.0,10.0,79,0.00,,,0.00,Wunderground v.1.15,2013-04-19 08:40:00,
2013-04-19 03:50:00,29.1,23.1,29.89,NW,321,9.0,14.0,78,0.00,,,0.00,Wunderground v.1.15,2013-04-19 08:50:00,
2013-04-19 04:00:00,29.0,23.0,29.89,West,269,10.0,10.0,78,0.00,,,0.00,Wunderground v.1.15,2013-04-19 09:00:00,
2013-04-19 04:05:00,29.0,23.0,29.89,WNW,294,9.0,10.0,78,0.00,,,0.00,Wunderground v.1.15,2013-04-19 09:05:00,
2013-04-19 04:15:00,28.9,22.6,29.89,WNW,288,11.0,13.0,77,0.00,,,0.00,Wunderground v.1.15,2013-04-19 09:15:00,
2013-04-19 04:25:00,28.8,22.5,29.89,WNW,286,11.0,11.0,77,0.00,,,0.00,Wunderground v.1.15,2013-04-19 09:25:00,
2013-04-19 04:35:00,28.8,22.5,29.89,WNW,292,10.0,10.0,77,0.00,,,0.00,Wunderground v.1.15,2013-04-19 09:35:00,
2013-04-19 04:45:00,28.7,22.4,29.89,West,277,9.0,12.0,77,0.00,,,0.00,Wunderground v.1.15,2013-04-19 09:45:00,
2013-04-19 04:50:00,28.6,22.3,29.89,WNW,295,9.0,11.0,77,0.00,,,0.00,Wunderground v.1.15,2013-04-19 09:50:00,
2013-04-19 05:00:00,28.5,22.2,29.89,West,265,10.0,10.0,77,0.00,,,0.00,Wunderground v.1.15,2013-04-19 10:00:00,
2013-04-19 05:05:00,28.5,22.2,29.89,WNW,300,10.0,11.0,77,0.00,,,0.00,Wunderground v.1.15,2013-04-19 10:05:00,
2013-04-19 05:15:00,28.4,22.1,29.89,WNW,290,10.0,12.0,77,0.00,,,0.00,Wunderground v.1.15,2013-04-19 10:15:00,
2013-04-19 05:20:00,28.4,22.1,29.89,West,281,10.0,10.0,77,0.00,,,0.00,Wunderground v.1.15,2013-04-19 10:20:00,
2013-04-19 05:30:00,28.3,22.0,29.89,WNW,293,11.0,11.0,77,0.00,,,0.00,Wunderground v.1.15,2013-04-19 10:30:00,
2013-04-19 05:40:00,28.3,22.0,29.90,West,277,10.0,13.0,77,0.00,,,0.00,Wunderground v.1.15,2013-04-19 10:40:00,
2013-04-19 05:50:00,28.2,21.6,29.90,West,281,10.0,15.0,76,0.00,,,0.00,Wunderground v.1.15,2013-04-19 10:50:00,
2013-04-19 06:00:00,28.2,21.9,29.90,WNW,294,11.0,12.0,77,0.00,,,0.00,Wunderground v.1.15,2013-04-19 11:00:00,
2013-04-19 06:05:00,28.2,21.6,29.90,WNW,293,11.0,12.0,76,0.00,,,0.00,Wunderground v.1.15,2013-04-19 11:05:00,
2013-04-19 06:15:00,28.1,21.5,29.91,WNW,284,12.0,15.0,76,0.00,,,0.00,Wunderground v.1.15,2013-04-19 11:15:00,
2013-04-19 06:20:00,28.1,21.5,29.91,WNW,290,12.0,12.0,76,0.00,,,0.00,Wunderground v.1.15,2013-04-19 11:20:00,
2013-04-19 06:30:00,28.0,21.4,29.91,WNW,290,9.0,11.0,76,0.00,,,0.00,Wunderground v.1.15,2013-04-19 11:30:00,
2013-04-19 06:40:00,27.9,21.3,29.92,West,280,10.0,10.0,76,0.00,,,0.00,Wunderground v.1.15,2013-04-19 11:40:00,
2013-04-19 06:50:00,27.9,21.3,29.92,NW,306,12.0,15.0,76,0.00,,,0.00,Wunderground v.1.15,2013-04-19 11:50:00,
2013-04-19 07:00:00,28.0,21.4,29.92,West,278,12.0,13.0,76,0.00,,,0.00,Wunderground v.1.15,2013-04-19 12:00:00,
2013-04-19 07:05:00,28.1,21.2,29.92,West,277,13.0,13.0,75,0.00,,,0.00,Wunderground v.1.15,2013-04-19 12:05:00,
2013-04-19 07:15:00,28.2,21.3,29.92,NNW,329,10.0,19.0,75,0.00,,,0.00,Wunderground v.1.15,2013-04-19 12:15:00,
2013-04-19 07:25:00,28.3,21.4,29.92,West,269,11.0,15.0,75,0.00,,,0.00,Wunderground v.1.15,2013-04-19 12:25:00,
2013-04-19 07:35:00,28.6,21.7,29.93,West,265,10.0,11.0,75,0.00,,,0.00,Wunderground v.1.15,2013-04-19 12:35:00,
2013-04-19 07:45:00,29.0,21.7,29.93,WNW,294,10.0,11.0,74,0.00,,,0.00,Wunderground v.1.15,2013-04-19 12:45:00,
2013-04-19 07:55:00,29.6,22.0,29.93,West,277,10.0,10.0,73,0.00,,,0.00,Wunderground v.1.15,2013-04-19 12:55:00,
2013-04-19 08:05:00,30.1,22.2,29.93,West,276,10.0,12.0,72,0.00,,,0.00,Wunderground v.1.15,2013-04-19 13:05:00,
2013-04-19 08:15:00,30.7,22.7,29.93,West,264,9.0,10.0,72,0.00,,,0.00,Wunderground v.1.15,2013-04-19 13:15:00,
2013-04-19 08:25:00,31.3,23.0,29.93,WNW,283,11.0,11.0,71,0.00,,,0.00,Wunderground v.1.15,2013-04-19 13:25:00,
2013-04-19 08:35:00,31.7,22.7,29.94,WNW,298,11.0,15.0,69,0.00,,,0.00,Wunderground v.1.15,2013-04-19 13:35:00,
2013-04-19 08:45:00,32.4,23.4,29.94,WNW,285,12.0,14.0,69,0.00,,,0.00,Wunderground v.1.15,2013-04-19 13:45:00,
2013-04-19 08:55:00,33.2,23.8,29.94,West,269,12.0,13.0,68,0.00,,,0.00,Wunderground v.1.15,2013-04-19 13:55:00,
2013-04-19 09:05:00,33.4,24.0,29.95,West,261,13.0,14.0,68,0.00,,,0.00,Wunderground v.1.15,2013-04-19 14:05:00,
2013-04-19 09:15:00,34.2,24.4,29.95,WNW,298,12.0,16.0,67,0.00,,,0.00,Wunderground v.1.15,2013-04-19 14:15:00,
2013-04-19 09:20:00,34.7,24.9,29.95,NW,306,12.0,12.0,67,0.00,,,0.00,Wunderground v.1.15,2013-04-19 14:20:00,
2013-04-19 09:30:00,35.6,25.4,29.95,West,281,10.0,14.0,66,0.00,,,0.00,Wunderground v.1.15,2013-04-19 14:30:00,
2013-04-19 09:35:00,35.8,25.2,29.95,NW,310,10.0,19.0,65,0.00,,,0.00,Wunderground v.1.15,2013-04-19 14:35:00,
2013-04-19 09:45:00,36.4,25.4,29.95,NW,317,11.0,17.0,64,0.00,,,0.00,Wunderground v.1.15,2013-04-19 14:45:00,
2013-04-19 09:50:00,36.9,26.2,29.95,WNW,300,11.0,11.0,65,0.00,,,0.00,Wunderground v.1.15,2013-04-19 14:50:00,
2013-04-19 10:00:00,37.8,26.3,29.95,WNW,294,12.0,12.0,63,0.00,,,0.00,Wunderground v.1.15,2013-04-19 15:00:00,
2013-04-19 10:05:00,38.5,27.0,29.95,WNW,298,12.0,12.0,63,0.00,,,0.00,Wunderground v.1.15,2013-04-19 15:05:00,
2013-04-19 10:15:00,39.5,26.3,29.95,West,275,10.0,10.0,59,0.00,,,0.00,Wunderground v.1.15,2013-04-19 15:15:00,
2013-04-19 10:25:00,39.8,27.0,29.95,West,275,10.0,15.0,60,0.00,,,0.00,Wunderground v.1.15,2013-04-19 15:25:00,
2013-04-19 10:35:00,40.2,26.6,29.95,WNW,298,10.0,12.0,58,0.00,,,0.00,Wunderground v.1.15,2013-04-19 15:35:00,
2013-04-19 10:40:00,40.2,27.4,29.95,West,276,11.0,14.0,60,0.00,,,0.00,Wunderground v.1.15,2013-04-19 15:40:00,
2013-04-19 10:50:00,39.9,25.9,29.96,WNW,285,12.0,17.0,57,0.00,,,0.00,Wunderground v.1.15,2013-04-19 15:50:00,
2013-04-19 11:00:00,41.8,27.7,29.96,WNW,303,9.0,17.0,57,0.00,,,0.00,Wunderground v.1.15,2013-04-19 16:00:00,
2013-04-19 11:05:00,41.5,27.8,29.96,NW,305,11.0,17.0,58,0.00,,,0.00,Wunderground v.1.15,2013-04-19 16:05:00,
2013-04-19 11:15:00,41.4,28.1,29.96,NW,306,11.0,18.0,59,0.00,,,0.00,Wunderground v.1.15,2013-04-19 16:15:00,
2013-04-19 11:20:00,41.6,27.5,29.96,WNW,300,12.0,15.0,57,0.00,,,0.00,Wunderground v.1.15,2013-04-19 16:20:00,
2013-04-19 11:25:00,41.6,27.1,29.97,NW,305,13.0,15.0,56,0.00,,,0.00,Wunderground v.1.15,2013-04-19 16:25:00,
2013-04-19 11:35:00,42.8,28.2,29.97,WNW,297,11.0,11.0,56,0.00,,,0.00,Wunderground v.1.15,2013-04-19 16:35:00,
2013-04-19 11:45:00,42.4,26.5,29.97,West,272,13.0,15.0,53,0.00,,,0.00,Wunderground v.1.15,2013-04-19 16:45:00,
2013-04-19 11:55:00,43.1,28.9,29.97,West,280,13.0,14.0,57,0.00,,,0.00,Wunderground v.1.15,2013-04-19 16:55:00,
2013-04-19 12:00:00,43.6,28.0,29.97,West,269,11.0,11.0,54,0.00,,,0.00,Wunderground v.1.15,2013-04-19 17:00:00,
2013-04-19 12:05:00,43.4,27.4,29.97,WNW,294,12.0,13.0,53,0.00,,,0.00,Wunderground v.1.15,2013-04-19 17:05:00,
2013-04-19 12:15:00,44.2,28.1,29.97,WNW,284,11.0,12.0,53,0.00,,,0.00,Wunderground v.1.15,2013-04-19 17:15:00,
2013-04-19 12:20:00,44.8,28.7,29.97,WNW,288,10.0,12.0,53,0.00,,,0.00,Wunderground v.1.15,2013-04-19 17:20:00,
2013-04-19 12:25:00,45.0,28.9,29.97,WNW,288,10.0,12.0,53,0.00,,,0.00,Wunderground v.1.15,2013-04-19 17:25:00,
2013-04-19 12:35:00,46.0,28.9,29.98,WNW,298,11.0,16.0,51,0.00,,,0.00,Wunderground v.1.15,2013-04-19 17:35:00,
2013-04-19 12:40:00,45.3,28.2,29.97,WNW,302,13.0,13.0,51,0.00,,,0.00,Wunderground v.1.15,2013-04-19 17:40:00,
2013-04-19 12:45:00,45.8,28.2,29.98,NW,321,14.0,16.0,50,0.00,,,0.00,Wunderground v.1.15,2013-04-19 17:45:00,
2013-04-19 12:55:00,45.8,28.7,29.98,NW,308,14.0,19.0,51,0.00,,,0.00,Wunderground v.1.15,2013-04-19 17:55:00,
2013-04-19 13:05:00,46.2,28.1,29.98,NW,306,13.0,13.0,49,0.00,,,0.00,Wunderground v.1.15,2013-04-19 18:05:00,
2013-04-19 13:15:00,45.5,26.4,29.98,NW,305,14.0,19.0,47,0.00,,,0.00,Wunderground v.1.15,2013-04-19 18:15:00,
2013-04-19 13:20:00,45.4,27.3,29.98,NW,317,13.0,13.0,49,0.00,,,0.00,Wunderground v.1.15,2013-04-19 18:20:00,
2013-04-19 13:30:00,46.4,27.8,29.98,WNW,294,12.0,12.0,48,0.00,,,0.00,Wunderground v.1.15,2013-04-19 18:30:00,
2013-04-19 13:40:00,46.6,27.4,29.98,WNW,294,12.0,12.0,47,0.00,,,0.00,Wunderground v.1.15,2013-04-19 18:40:00,
2013-04-19 13:45:00,46.9,28.2,29.98,WNW,293,10.0,13.0,48,0.00,,,0.00,Wunderground v.1.15,2013-04-19 18:45:00,
2013-04-19 13:55:00,47.0,28.8,29.99,NNW,346,13.0,15.0,49,0.00,,,0.00,Wunderground v.1.15,2013-04-19 18:55:00,
2013-04-19 14:00:00,48.1,29.3,29.98,WNW,282,11.0,11.0,48,0.00,,,0.00,Wunderground v.1.15,2013-04-19 19:00:00,
2013-04-19 14:05:00,47.6,27.3,29.99,WNW,296,11.0,20.0,45,0.00,,,0.00,Wunderground v.1.15,2013-04-19 19:05:00,
2013-04-19 14:15:00,47.4,27.1,29.99,WSW,251,12.0,18.0,45,0.00,,,0.00,Wunderground v.1.15,2013-04-19 19:15:00,
2013-04-19 14:20:00,48.6,28.7,29.99,NW,312,11.0,12.0,46,0.00,,,0.00,Wunderground v.1.15,2013-04-19 19:20:00,
2013-04-19 14:30:00,46.0,25.8,29.99,NW,323,14.0,14.0,45,0.00,,,0.00,Wunderground v.1.15,2013-04-19 19:30:00,
2013-04-19 14:35:00,47.3,27.0,29.99,WNW,285,12.0,14.0,45,0.00,,,0.00,Wunderground v.1.15,2013-04-19 19:35:00,
2013-04-19 14:45:00,47.6,26.2,29.99,West,265,13.0,13.0,43,0.00,,,0.00,Wunderground v.1.15,2013-04-19 19:45:00,
2013-04-19 14:55:00,47.2,27.5,29.99,NW,306,13.0,15.0,46,0.00,,,0.00,Wunderground v.1.15,2013-04-19 19:55:00,
2013-04-19 15:00:00,46.9,25.5,29.99,West,279,12.0,14.0,43,0.00,,,0.00,Wunderground v.1.15,2013-04-19 20:00:00,
2013-04-19 15:05:00,45.8,25.1,30.00,WNW,294,14.0,18.0,44,0.00,,,0.00,Wunderground v.1.15,2013-04-19 20:05:00,
2013-04-19 15:15:00,45.6,24.9,30.00,NW,321,11.0,12.0,44,0.00,,,0.00,Wunderground v.1.15,2013-04-19 20:15:00,
2013-04-19 15:20:00,44.9,24.8,30.00,NW,321,12.0,15.0,45,0.00,,,0.00,Wunderground v.1.15,2013-04-19 20:20:00,
2013-04-19 15:25:00,44.7,24.6,30.00,WSW,253,12.0,15.0,45,0.00,,,0.00,Wunderground v.1.15,2013-04-19 20:25:00,
2013-04-19 15:35:00,46.1,26.4,30.00,NW,304,12.0,19.0,46,0.00,,,0.00,Wunderground v.1.15,2013-04-19 20:35:00,
2013-04-19 15:45:00,46.5,26.3,30.00,West,265,12.0,23.0,45,0.00,,,0.00,Wunderground v.1.15,2013-04-19 20:45:00,
2013-04-19 15:55:00,48.2,27.8,30.00,West,279,12.0,13.0,45,0.00,,,0.00,Wunderground v.1.15,2013-04-19 20:55:00,
2013-04-19 16:00:00,48.2,26.2,30.00,WNW,292,12.0,14.0,42,0.00,,,0.00,Wunderground v.1.15,2013-04-19 21:00:00,
2013-04-19 16:05:00,48.1,26.6,30.00,WNW,283,12.0,14.0,43,0.00,,,0.00,Wunderground v.1.15,2013-04-19 21:05:00,
2013-04-19 16:10:00,49.0,27.5,30.00,NNW,345,11.0,14.0,43,0.00,,,0.00,Wunderground v.1.15,2013-04-19 21:10:00,
2013-04-19 16:20:00,48.6,25.9,30.00,NW,309,12.0,12.0,41,0.00,,,0.00,Wunderground v.1.15,2013-04-19 21:20:00,
2013-04-19 16:30:00,48.4,26.9,30.00,NW,309,12.0,14.0,43,0.00,,,0.00,Wunderground v.1.15,2013-04-19 21:30:00,
2013-04-19 16:40:00,47.5,26.1,30.00,NW,307,14.0,14.0,43,0.00,,,0.00,Wunderground v.1.15,2013-04-19 21:40:00,
2013-04-19 16:45:00,47.7,26.3,30.00,WNW,291,12.0,14.0,43,0.00,,,0.00,Wunderground v.1.15,2013-04-19 21:45:00,
2013-04-19 16:55:00,46.5,24.6,30.01,WNW,297,12.0,13.0,42,0.00,,,0.00,Wunderground v.1.15,2013-04-19 21:55:00,
2013-04-19 17:05:00,45.9,24.6,30.01,WNW,291,13.0,13.0,43,0.00,,,0.00,Wunderground v.1.15,2013-04-19 22:05:00,
2013-04-19 17:15:00,46.6,25.3,30.01,NW,311,11.0,16.0,43,0.00,,,0.00,Wunderground v.1.15,2013-04-19 22:15:00,
2013-04-19 17:25:00,46.1,24.8,30.02,NW,324,12.0,12.0,43,0.00,,,0.00,Wunderground v.1.15,2013-04-19 22:25:00,
2013-04-19 17:30:00,45.7,24.5,30.02,NW,315,12.0,19.0,43,0.00,,,0.00,Wunderground v.1.15,2013-04-19 22:30:00,
2013-04-19 17:40:00,45.6,25.5,30.02,NW,324,14.0,14.0,45,0.00,,,0.00,Wunderground v.1.15,2013-04-19 22:40:00,
2013-04-19 17:50:00,45.9,25.7,30.02,NNW,332,9.0,9.0,45,0.00,,,0.00,Wunderground v.1.15,2013-04-19 22:50:00,
2013-04-19 17:55:00,45.7,25.0,30.02,NW,323,10.0,10.0,44,0.00,,,0.00,Wunderground v.1.15,2013-04-19 22:55:00,
2013-04-19 18:05:00,45.3,25.2,30.02,NNW,348,10.0,13.0,45,0.00,,,0.00,Wunderground v.1.15,2013-04-19 23:05:00,
2013-04-19 18:15:00,44.7,24.6,30.03,WNW,286,12.0,18.0,45,0.00,,,0.00,Wunderground v.1.15,2013-04-19 23:15:00,
2013-04-19 18:25:00,44.7,25.2,30.03,WNW,290,11.0,16.0,46,0.00,,,0.00,Wunderground v.1.15,2013-04-19 23:25:00,
2013-04-19 18:35:00,44.5,23.9,30.03,North,360,12.0,13.0,44,0.00,,,0.00,Wunderground v.1.15,2013-04-19 23:35:00,
2013-04-19 18:45:00,44.1,24.6,30.03,NNW,345,11.0,16.0,46,0.00,,,0.00,Wunderground v.1.15,2013-04-19 23:45:00,
2013-04-19 18:55:00,43.7,24.2,30.03,NW,304,12.0,12.0,46,0.00,,,0.00,Wunderground v.1.15,2013-04-19 23:55:00,
2013-04-19 19:05:00,43.1,23.7,30.04,WNW,292,11.0,14.0,46,0.00,,,0.00,Wunderground v.1.15,2013-04-20 00:05:00,
2013-04-19 19:10:00,42.9,24.0,30.04,NW,306,11.0,11.0,47,0.00,,,0.00,Wunderground v.1.15,2013-04-20 00:10:00,
2013-04-19 19:20:00,42.3,23.0,30.05,NW,321,10.0,13.0,46,0.00,,,0.00,Wunderground v.1.15,2013-04-20 00:20:00,
2013-04-19 19:30:00,41.6,23.3,30.05,NW,325,8.0,8.0,48,0.00,,,0.00,Wunderground v.1.15,2013-04-20 00:30:00,
2013-04-19 19:35:00,41.2,23.0,30.05,NW,307,7.0,8.0,48,0.00,,,0.00,Wunderground v.1.15,2013-04-20 00:35:00,
2013-04-19 19:45:00,40.6,22.9,30.06,NNW,340,8.0,13.0,49,0.00,,,0.00,Wunderground v.1.15,2013-04-20 00:45:00,
2013-04-19 19:55:00,40.2,22.5,30.06,NNW,336,8.0,12.0,49,0.00,,,0.00,Wunderground v.1.15,2013-04-20 00:55:00,
2013-04-19 20:00:00,40.0,22.8,30.06,WNW,296,7.0,7.0,50,0.00,,,0.00,Wunderground v.1.15,2013-04-20 01:00:00,
2013-04-19 20:05:00,39.8,22.7,30.06,WNW,298,7.0,10.0,50,0.00,,,0.00,Wunderground v.1.15,2013-04-20 01:05:00,
2013-04-19 20:10:00,39.6,22.5,30.06,WNW,297,8.0,11.0,50,0.00,,,0.00,Wunderground v.1.15,2013-04-20 01:10:00,
2013-04-19 20:20:00,39.2,22.6,30.07,NW,313,7.0,10.0,51,0.00,,,0.00,Wunderground v.1.15,2013-04-20 01:20:00,
2013-04-19 20:30:00,38.9,22.8,30.08,WNW,294,6.0,11.0,52,0.00,,,0.00,Wunderground v.1.15,2013-04-20 01:30:00,
2013-04-19 20:40:00,38.5,22.4,30.08,NW,309,4.0,5.0,52,0.00,,,0.00,Wunderground v.1.15,2013-04-20 01:40:00,
2013-04-19 20:45:00,38.3,22.6,30.08,WNW,302,5.0,5.0,53,0.00,,,0.00,Wunderground v.1.15,2013-04-20 01:45:00,
2013-04-19 20:55:00,37.9,22.3,30.09,WNW,302,6.0,8.0,53,0.00,,,0.00,Wunderground v.1.15,2013-04-20 01:55:00,
2013-04-19 21:05:00,37.5,21.9,30.09,WNW,300,5.0,7.0,53,0.00,,,0.00,Wunderground v.1.15,2013-04-20 02:05:00,
2013-04-19 21:15:00,37.4,22.3,30.09,NW,313,5.0,8.0,54,0.00,,,0.00,Wunderground v.1.15,2013-04-20 02:15:00,
2013-04-19 21:20:00,37.2,22.1,30.09,WNW,287,4.0,8.0,54,0.00,,,0.00,Wunderground v.1.15,2013-04-20 02:20:00,
2013-04-19 21:30:00,36.9,22.2,30.10,NW,319,4.0,4.0,55,0.00,,,0.00,Wunderground v.1.15,2013-04-20 02:30:00,
2013-04-19 21:40:00,36.5,21.8,30.10,NW,323,4.0,5.0,55,0.00,,,0.00,Wunderground v.1.15,2013-04-20 02:40:00,
2013-04-19 21:50:00,36.2,22.0,30.11,NNW,333,4.0,6.0,56,0.00,,,0.00,Wunderground v.1.15,2013-04-20 02:50:00,
2013-04-19 21:55:00,36.1,21.9,30.11,NW,311,4.0,7.0,56,0.00,,,0.00,Wunderground v.1.15,2013-04-20 02:55:00,
2013-04-19 22:00:00,36.0,22.2,30.11,NW,312,5.0,5.0,57,0.00,,,0.00,Wunderground v.1.15,2013-04-20 03:00:00,
2013-04-19 22:05:00,35.9,22.1,30.11,NNW,338,4.0,5.0,57,0.00,,,0.00,Wunderground v.1.15,2013-04-20 03:05:00,
2013-04-19 22:15:00,35.7,21.9,30.11,NW,317,4.0,4.0,57,0.00,,,0.00,Wunderground v.1.15,2013-04-20 03:15:00,
2013-04-19 22:25:00,35.4,22.1,30.11,North,350,4.0,8.0,58,0.00,,,0.00,Wunderground v.1.15,2013-04-20 03:25:00,
2013-04-19 22:35:00,35.3,22.0,30.11,NW,323,5.0,5.0,58,0.00,,,0.00,Wunderground v.1.15,2013-04-20 03:35:00,
2013-04-19 22:45:00,35.2,22.3,30.11,NW,318,4.0,5.0,59,0.00,,,0.00,Wunderground v.1.15,2013-04-20 03:45:00,
2013-04-19 22:55:00,34.9,22.4,30.11,NW,321,4.0,4.0,60,0.00,,,0.00,Wunderground v.1.15,2013-04-20 03:55:00,
2013-04-19 23:05:00,34.7,22.2,30.12,NNW,329,3.0,4.0,60,0.00,,,0.00,Wunderground v.1.15,2013-04-20 04:05:00,
2013-04-19 23:10:00,34.5,22.0,30.12,NNW,336,3.0,3.0,60,0.00,,,0.00,Wunderground v.1.15,2013-04-20 04:10:00,
2013-04-19 23:15:00,34.4,21.9,30.12,NNW,344,3.0,3.0,60,0.00,,,0.00,Wunderground v.1.15,2013-04-20 04:15:00,
2013-04-19 23:25:00,34.4,21.9,30.12,NNW,344,2.0,3.0,60,0.00,,,0.00,Wunderground v.1.15,2013-04-20 04:25:00,
2013-04-19 23:35:00,34.1,22.0,30.12,NNW,344,2.0,2.0,61,0.00,,,0.00,Wunderground v.1.15,2013-04-20 04:35:00,
2013-04-19 23:45:00,33.8,21.8,30.13,NNW,344,2.0,2.0,61,0.00,,,0.00,Wunderground v.1.15,2013-04-20 04:45:00,
2013-04-19 23:50:00,33.7,22.1,30.13,NNW,344,1.0,1.0,62,0.00,,,0.00,Wunderground v.1.15,2013-04-20 04:50:00,
2013-04-19 23:55:00,33.5,21.9,30.12,NNW,344,1.0,2.0,62,0.00,,,0.00,Wunderground v.1.15,2013-04-20 04:55:00,